CST,Max TemperatureF,Mean TemperatureF,Min TemperatureF,Max Dew PointF,MeanDew PointF,Min DewpointF,Max Humidity, Mean Humidity, Min Humidity, Max Sea Level PressureIn, Mean Sea Level PressureIn, Min Sea Level PressureIn, Max VisibilityMiles, Mean VisibilityMiles, Min VisibilityMiles, Max Wind SpeedMPH, Mean Wind SpeedMPH, Max Gust SpeedMPH,PrecipitationIn, CloudCover, Events, WindDirDegrees
2011-11-1,60,48,37,37,35,32,81,55,42,29.95,29.88,29.82,10,10,10,25,11,32,0.03,0,,5
2011-11-2,42,38,32,34,31,27,100,80,61,30.34,30.22,30.03,10,9,2,31,20,39,0.22,6,Rain-Snow,356
2011-11-3,48,36,24,28,23,19,86,65,34,30.37,30.30,30.19,10,10,10,12,8,,0.00,0,,255
2011-11-4,53,40,26,30,25,21,80,62,35,30.18,30.03,29.87,10,10,10,25,12,32,0.00,0,,160
2011-11-5,57,47,37,36,29,27,65,49,35,29.84,29.59,29.39,10,10,10,37,21,45,0.00,0,,164
2011-11-6,55,44,32,39,27,18,87,52,23,30.03,29.82,29.41,10,10,7,31,13,41,0.00,1,,268
2011-11-7,51,38,26,37,27,21,87,67,38,30.15,30.10,30.05,10,10,7,17,7,22,0.00,3,,50
2011-11-8,42,37,32,36,33,27,93,82,65,30.16,30.08,30.02,10,9,4,21,13,26,0.03,6,Rain,21
2011-11-9,50,40,30,27,23,19,80,59,32,30.37,30.30,30.19,10,10,10,22,11,28,0.00,1,,317
2011-11-10,51,37,23,27,22,18,86,55,32,30.34,30.20,29.97,10,10,10,12,7,,0.00,0,,230
2011-11-11,66,49,32,25,20,16,65,39,15,29.89,29.82,29.73,10,10,10,15,10,22,0.00,0,,266
2011-11-12,71,50,28,32,24,19,75,45,14,29.67,29.50,29.41,10,10,10,18,7,26,0.00,0,,247
2011-11-13,57,50,42,36,25,12,61,41,22,29.59,29.50,29.34,10,10,10,25,15,36,0.00,1,,285
2011-11-14,60,48,35,32,24,14,70,45,16,29.74,29.64,29.59,10,10,10,21,11,29,0.00,0,,259
2011-11-15,51,38,24,30,21,12,64,49,32,30.07,29.86,29.66,10,10,10,20,10,22,0.00,0,,350
2011-11-16,37,30,24,30,24,12,93,76,47,30.32,30.23,30.08,10,9,1,18,7,17,0.01,6,Snow,293
2011-11-17,51,35,19,30,20,14,80,60,30,30.31,30.10,29.83,10,10,10,26,12,36,0.00,0,,218
2011-11-18,55,42,30,30,27,25,87,65,36,29.77,29.63,29.54,10,10,10,15,11,17,0.00,0,,167
2011-11-19,33,28,23,30,25,19,93,82,69,30.09,29.74,29.46,10,9,4,24,14,31,0.00,5,,5
2011-11-20,35,25,15,23,19,12,93,78,56,30.27,30.20,30.16,10,10,10,12,6,,0.00,0,,75
2011-11-21,39,26,14,27,21,10,93,77,61,30.19,30.10,30.01,10,10,10,10,2,,0.00,1,,184
2011-11-22,59,41,23,32,26,19,93,64,29,30.08,30.03,29.99,10,10,10,15,6,21,0.00,0,,276
2011-11-23,64,48,33,30,27,23,65,46,26,30.16,30.11,30.07,10,10,10,13,9,,0.00,0,,251
2011-11-24,64,48,32,34,31,28,100,57,28,30.02,29.88,29.80,10,10,10,22,11,29,0.00,0,,199
2011-11-25,55,45,35,41,36,32,100,74,44,29.77,29.69,29.63,10,10,7,10,6,,0.00,3,,208
2011-11-26,46,37,26,30,16,1,61,40,17,30.37,30.16,29.79,10,10,10,37,23,47,0.00,2,,337
2011-11-27,44,32,19,14,9,5,68,43,20,30.36,30.29,30.18,10,10,10,14,9,,0.00,0,,297
2011-11-28,59,42,26,25,18,9,69,43,25,30.14,30.05,30.00,10,10,10,18,6,,0.00,0,,257
2011-11-29,37,30,23,30,23,18,93,71,48,30.38,30.27,30.13,10,10,10,17,11,25,0.00,0,,291
2011-11-30,53,40,26,29,24,18,80,59,37,30.12,29.90,29.75,10,10,10,15,9,20,0.03,0,,185